sensor_id;sensor_type;location;lat;lon;timestamp;P1;durP1;ratioP1;P2;durP2;ratioP2
6973;SDS011;3527;52.376;8.990;2023-03-26T00:02:21;13.43;;;5.63;;
6973;SDS011;3527;52.376;8.990;2023-03-26T00:04:48;12.40;;;4.97;;
6973;SDS011;3527;52.376;8.990;2023-03-26T00:07:16;10.30;;;5.07;;
6973;SDS011;3527;52.376;8.990;2023-03-26T00:09:43;10.33;;;4.57;;
6973;SDS011;3527;52.376;8.990;2023-03-26T00:12:09;12.57;;;4.90;;
6973;SDS011;3527;52.376;8.990;2023-03-26T00:14:36;9.27;;;5.00;;
6973;SDS011;3527;52.376;8.990;2023-03-26T00:17:03;11.93;;;4.53;;
6973;SDS011;3527;52.376;8.990;2023-03-26T00:19:30;9.00;;;3.93;;
6973;SDS011;3527;52.376;8.990;2023-03-26T00:21:57;10.60;;;4.07;;
6973;SDS011;3527;52.376;8.990;2023-03-26T00:24:24;11.50;;;4.10;;
6973;SDS011;3527;52.376;8.990;2023-03-26T00:26:54;7.83;;;2.77;;
6973;SDS011;3527;52.376;8.990;2023-03-26T00:29:21;7.67;;;2.90;;
6973;SDS011;3527;52.376;8.990;2023-03-26T00:31:53;8.03;;;2.90;;
6973;SDS011;3527;52.376;8.990;2023-03-26T00:34:20;7.80;;;3.03;;
6973;SDS011;3527;52.376;8.990;2023-03-26T00:36:48;8.10;;;2.27;;
6973;SDS011;3527;52.376;8.990;2023-03-26T00:39:20;6.20;;;2.20;;
6973;SDS011;3527;52.376;8.990;2023-03-26T00:41:47;5.53;;;2.00;;
6973;SDS011;3527;52.376;8.990;2023-03-26T00:44:13;6.70;;;2.13;;
6973;SDS011;3527;52.376;8.990;2023-03-26T00:46:40;6.03;;;1.80;;
6973;SDS011;3527;52.376;8.990;2023-03-26T00:49:08;7.03;;;1.60;;
6973;SDS011;3527;52.376;8.990;2023-03-26T00:51:36;5.40;;;1.37;;
6973;SDS011;3527;52.376;8.990;2023-03-26T00:54:04;3.87;;;1.30;;
6973;SDS011;3527;52.376;8.990;2023-03-26T00:56:33;2.30;;;1.20;;
6973;SDS011;3527;52.376;8.990;2023-03-26T00:59:00;5.17;;;1.60;;
6973;SDS011;3527;52.376;8.990;2023-03-26T01:01:26;6.40;;;1.50;;
6973;SDS011;3527;52.376;8.990;2023-03-26T01:03:55;3.13;;;1.23;;
6973;SDS011;3527;52.376;8.990;2023-03-26T01:06:35;5.07;;;1.30;;
6973;SDS011;3527;52.376;8.990;2023-03-26T01:09:13;3.60;;;1.10;;
6973;SDS011;3527;52.376;8.990;2023-03-26T01:11:40;3.50;;;1.40;;
6973;SDS011;3527;52.376;8.990;2023-03-26T01:14:10;4.67;;;1.30;;
6973;SDS011;3527;52.376;8.990;2023-03-26T01:16:39;4.20;;;1.40;;
6973;SDS011;3527;52.376;8.990;2023-03-26T01:19:10;3.73;;;1.30;;
6973;SDS011;3527;52.376;8.990;2023-03-26T01:21:38;5.73;;;1.30;;
6973;SDS011;3527;52.376;8.990;2023-03-26T01:24:06;3.73;;;1.13;;
6973;SDS011;3527;52.376;8.990;2023-03-26T01:29:06;3.00;;;1.20;;
6973;SDS011;3527;52.376;8.990;2023-03-26T01:31:36;4.87;;;1.50;;
6973;SDS011;3527;52.376;8.990;2023-03-26T01:34:11;3.03;;;1.43;;
6973;SDS011;3527;52.376;8.990;2023-03-26T01:36:45;3.87;;;1.63;;
6973;SDS011;3527;52.376;8.990;2023-03-26T01:39:20;4.77;;;2.07;;
6973;SDS011;3527;52.376;8.990;2023-03-26T01:41:51;5.33;;;1.83;;
6973;SDS011;3527;52.376;8.990;2023-03-26T01:46:50;3.73;;;2.13;;
6973;SDS011;3527;52.376;8.990;2023-03-26T01:49:18;6.53;;;1.70;;
6973;SDS011;3527;52.376;8.990;2023-03-26T01:51:45;4.60;;;1.33;;
6973;SDS011;3527;52.376;8.990;2023-03-26T01:54:15;6.03;;;1.80;;
6973;SDS011;3527;52.376;8.990;2023-03-26T01:56:47;8.83;;;2.40;;
6973;SDS011;3527;52.376;8.990;2023-03-26T02:07:06;6.20;;;2.20;;
6973;SDS011;3527;52.376;8.990;2023-03-26T02:09:36;5.90;;;1.97;;
6973;SDS011;3527;52.376;8.990;2023-03-26T02:12:06;6.13;;;2.13;;
6973;SDS011;3527;52.376;8.990;2023-03-26T02:14:33;8.03;;;2.07;;
6973;SDS011;3527;52.376;8.990;2023-03-26T02:17:01;4.87;;;2.00;;
6973;SDS011;3527;52.376;8.990;2023-03-26T02:19:27;6.33;;;2.20;;
6973;SDS011;3527;52.376;8.990;2023-03-26T02:21:55;5.50;;;2.23;;
6973;SDS011;3527;52.376;8.990;2023-03-26T02:24:25;8.47;;;2.20;;
6973;SDS011;3527;52.376;8.990;2023-03-26T02:26:51;6.40;;;2.10;;
6973;SDS011;3527;52.376;8.990;2023-03-26T02:29:18;6.70;;;2.47;;
6973;SDS011;3527;52.376;8.990;2023-03-26T02:31:46;6.37;;;2.47;;
6973;SDS011;3527;52.376;8.990;2023-03-26T02:34:16;5.57;;;2.40;;
6973;SDS011;3527;52.376;8.990;2023-03-26T02:36:42;5.27;;;1.70;;
6973;SDS011;3527;52.376;8.990;2023-03-26T02:39:09;5.00;;;1.77;;
6973;SDS011;3527;52.376;8.990;2023-03-26T02:41:36;6.73;;;1.90;;
6973;SDS011;3527;52.376;8.990;2023-03-26T02:44:03;3.80;;;1.60;;
6973;SDS011;3527;52.376;8.990;2023-03-26T02:46:31;9.60;;;1.83;;
6973;SDS011;3527;52.376;8.990;2023-03-26T02:48:58;7.70;;;2.37;;
6973;SDS011;3527;52.376;8.990;2023-03-26T02:51:24;10.57;;;2.47;;
6973;SDS011;3527;52.376;8.990;2023-03-26T02:53:52;5.63;;;1.97;;
6973;SDS011;3527;52.376;8.990;2023-03-26T02:56:20;5.33;;;1.93;;
6973;SDS011;3527;52.376;8.990;2023-03-26T02:58:46;5.47;;;2.23;;
6973;SDS011;3527;52.376;8.990;2023-03-26T03:01:13;5.20;;;2.03;;
6973;SDS011;3527;52.376;8.990;2023-03-26T03:03:44;4.83;;;2.13;;
6973;SDS011;3527;52.376;8.990;2023-03-26T03:06:18;6.30;;;2.13;;
6973;SDS011;3527;52.376;8.990;2023-03-26T03:08:45;5.43;;;2.07;;
6973;SDS011;3527;52.376;8.990;2023-03-26T03:11:13;11.00;;;2.60;;
6973;SDS011;3527;52.376;8.990;2023-03-26T03:13:40;8.77;;;2.53;;
6973;SDS011;3527;52.376;8.990;2023-03-26T03:16:07;7.10;;;2.73;;
6973;SDS011;3527;52.376;8.990;2023-03-26T03:18:33;4.10;;;2.40;;
6973;SDS011;3527;52.376;8.990;2023-03-26T03:21:01;7.83;;;2.40;;
6973;SDS011;3527;52.376;8.990;2023-03-26T03:23:28;6.47;;;2.70;;
6973;SDS011;3527;52.376;8.990;2023-03-26T03:25:55;7.23;;;2.30;;
6973;SDS011;3527;52.376;8.990;2023-03-26T03:28:23;6.07;;;2.70;;
6973;SDS011;3527;52.376;8.990;2023-03-26T03:30:50;5.57;;;2.63;;
6973;SDS011;3527;52.376;8.990;2023-03-26T03:33:19;8.50;;;2.50;;
6973;SDS011;3527;52.376;8.990;2023-03-26T03:35:47;10.30;;;3.07;;
6973;SDS011;3527;52.376;8.990;2023-03-26T03:38:17;5.67;;;2.50;;
6973;SDS011;3527;52.376;8.990;2023-03-26T03:40:44;5.00;;;2.77;;
6973;SDS011;3527;52.376;8.990;2023-03-26T03:43:11;5.27;;;2.30;;
6973;SDS011;3527;52.376;8.990;2023-03-26T03:45:38;4.10;;;2.50;;
6973;SDS011;3527;52.376;8.990;2023-03-26T03:48:04;4.87;;;2.40;;
6973;SDS011;3527;52.376;8.990;2023-03-26T03:50:32;7.67;;;2.90;;
6973;SDS011;3527;52.376;8.990;2023-03-26T03:53:01;6.87;;;2.87;;
6973;SDS011;3527;52.376;8.990;2023-03-26T03:55:28;8.73;;;3.07;;
6973;SDS011;3527;52.376;8.990;2023-03-26T03:57:55;9.73;;;3.10;;
6973;SDS011;3527;52.376;8.990;2023-03-26T04:00:23;14.73;;;3.90;;
6973;SDS011;3527;52.376;8.990;2023-03-26T04:02:50;6.20;;;3.40;;
6973;SDS011;3527;52.376;8.990;2023-03-26T04:05:19;7.60;;;3.13;;
6973;SDS011;3527;52.376;8.990;2023-03-26T04:07:46;10.93;;;4.30;;
6973;SDS011;3527;52.376;8.990;2023-03-26T04:10:13;8.33;;;4.40;;
6973;SDS011;3527;52.376;8.990;2023-03-26T04:12:41;9.20;;;3.77;;
6973;SDS011;3527;52.376;8.990;2023-03-26T04:15:08;13.50;;;4.90;;
6973;SDS011;3527;52.376;8.990;2023-03-26T04:17:55;12.90;;;4.67;;
6973;SDS011;3527;52.376;8.990;2023-03-26T04:20:42;9.93;;;4.67;;
6973;SDS011;3527;52.376;8.990;2023-03-26T04:23:31;11.27;;;4.70;;
6973;SDS011;3527;52.376;8.990;2023-03-26T04:25:59;12.67;;;5.10;;
6973;SDS011;3527;52.376;8.990;2023-03-26T04:28:44;14.57;;;4.83;;
6973;SDS011;3527;52.376;8.990;2023-03-26T04:31:18;9.10;;;5.00;;
6973;SDS011;3527;52.376;8.990;2023-03-26T04:33:50;13.97;;;4.90;;
6973;SDS011;3527;52.376;8.990;2023-03-26T04:36:27;10.67;;;5.40;;
6973;SDS011;3527;52.376;8.990;2023-03-26T04:38:54;14.53;;;5.97;;
6973;SDS011;3527;52.376;8.990;2023-03-26T04:41:21;12.03;;;4.63;;
6973;SDS011;3527;52.376;8.990;2023-03-26T04:43:47;10.70;;;4.80;;
6973;SDS011;3527;52.376;8.990;2023-03-26T04:46:16;11.97;;;4.73;;
6973;SDS011;3527;52.376;8.990;2023-03-26T04:48:49;10.90;;;5.00;;
6973;SDS011;3527;52.376;8.990;2023-03-26T04:51:17;14.07;;;5.47;;
6973;SDS011;3527;52.376;8.990;2023-03-26T04:53:49;18.83;;;5.13;;
6973;SDS011;3527;52.376;8.990;2023-03-26T04:56:27;14.27;;;6.10;;
6973;SDS011;3527;52.376;8.990;2023-03-26T04:58:57;11.03;;;4.87;;
6973;SDS011;3527;52.376;8.990;2023-03-26T05:01:25;12.33;;;5.03;;
6973;SDS011;3527;52.376;8.990;2023-03-26T05:03:53;14.57;;;5.33;;
6973;SDS011;3527;52.376;8.990;2023-03-26T05:06:20;11.43;;;4.80;;
6973;SDS011;3527;52.376;8.990;2023-03-26T05:08:47;13.27;;;5.70;;
6973;SDS011;3527;52.376;8.990;2023-03-26T05:11:14;10.73;;;4.63;;
6973;SDS011;3527;52.376;8.990;2023-03-26T05:13:41;13.10;;;4.97;;
6973;SDS011;3527;52.376;8.990;2023-03-26T05:16:09;9.30;;;4.70;;
6973;SDS011;3527;52.376;8.990;2023-03-26T05:18:35;13.20;;;4.50;;
6973;SDS011;3527;52.376;8.990;2023-03-26T05:21:02;12.43;;;4.87;;
6973;SDS011;3527;52.376;8.990;2023-03-26T05:23:28;13.03;;;5.23;;
6973;SDS011;3527;52.376;8.990;2023-03-26T05:25:55;12.67;;;5.07;;
6973;SDS011;3527;52.376;8.990;2023-03-26T05:28:22;13.20;;;5.10;;
6973;SDS011;3527;52.376;8.990;2023-03-26T05:30:51;11.63;;;4.87;;
6973;SDS011;3527;52.376;8.990;2023-03-26T05:33:19;13.07;;;4.97;;
6973;SDS011;3527;52.376;8.990;2023-03-26T05:35:46;9.37;;;4.33;;
6973;SDS011;3527;52.376;8.990;2023-03-26T05:38:14;12.33;;;4.47;;
6973;SDS011;3527;52.376;8.990;2023-03-26T05:40:41;11.70;;;4.77;;
6973;SDS011;3527;52.376;8.990;2023-03-26T05:43:08;8.57;;;4.20;;
6973;SDS011;3527;52.376;8.990;2023-03-26T05:45:34;10.93;;;5.00;;
6973;SDS011;3527;52.376;8.990;2023-03-26T05:48:01;11.67;;;5.00;;
6973;SDS011;3527;52.376;8.990;2023-03-26T05:50:28;16.33;;;4.80;;
6973;SDS011;3527;52.376;8.990;2023-03-26T05:52:54;11.57;;;4.10;;
6973;SDS011;3527;52.376;8.990;2023-03-26T05:55:21;11.07;;;4.87;;
6973;SDS011;3527;52.376;8.990;2023-03-26T05:57:47;9.03;;;4.70;;
6973;SDS011;3527;52.376;8.990;2023-03-26T06:00:14;13.97;;;4.23;;
6973;SDS011;3527;52.376;8.990;2023-03-26T06:02:41;10.97;;;4.67;;
6973;SDS011;3527;52.376;8.990;2023-03-26T06:05:08;9.50;;;4.27;;
6973;SDS011;3527;52.376;8.990;2023-03-26T06:07:35;9.17;;;3.93;;
6973;SDS011;3527;52.376;8.990;2023-03-26T06:10:01;9.63;;;4.30;;
6973;SDS011;3527;52.376;8.990;2023-03-26T06:12:28;8.80;;;3.70;;
6973;SDS011;3527;52.376;8.990;2023-03-26T06:14:55;10.97;;;3.73;;
6973;SDS011;3527;52.376;8.990;2023-03-26T06:17:22;12.27;;;4.40;;
6973;SDS011;3527;52.376;8.990;2023-03-26T06:19:48;9.73;;;3.53;;
6973;SDS011;3527;52.376;8.990;2023-03-26T06:22:15;11.60;;;4.17;;
6973;SDS011;3527;52.376;8.990;2023-03-26T06:24:42;9.33;;;3.63;;
6973;SDS011;3527;52.376;8.990;2023-03-26T06:27:08;14.37;;;4.10;;
6973;SDS011;3527;52.376;8.990;2023-03-26T06:29:35;5.70;;;3.17;;
6973;SDS011;3527;52.376;8.990;2023-03-26T06:32:01;7.47;;;3.53;;
6973;SDS011;3527;52.376;8.990;2023-03-26T06:34:44;8.40;;;4.30;;
6973;SDS011;3527;52.376;8.990;2023-03-26T06:37:10;10.37;;;3.80;;
6973;SDS011;3527;52.376;8.990;2023-03-26T06:39:37;11.80;;;4.33;;
6973;SDS011;3527;52.376;8.990;2023-03-26T06:42:03;9.60;;;4.00;;
6973;SDS011;3527;52.376;8.990;2023-03-26T06:44:30;8.07;;;3.73;;
6973;SDS011;3527;52.376;8.990;2023-03-26T06:46:56;10.27;;;3.67;;
6973;SDS011;3527;52.376;8.990;2023-03-26T06:49:23;16.53;;;4.50;;
6973;SDS011;3527;52.376;8.990;2023-03-26T06:51:50;10.77;;;4.07;;
6973;SDS011;3527;52.376;8.990;2023-03-26T06:54:16;8.27;;;3.37;;
6973;SDS011;3527;52.376;8.990;2023-03-26T06:56:43;8.80;;;3.70;;
6973;SDS011;3527;52.376;8.990;2023-03-26T06:59:10;9.40;;;3.47;;
6973;SDS011;3527;52.376;8.990;2023-03-26T07:01:37;9.60;;;3.50;;
6973;SDS011;3527;52.376;8.990;2023-03-26T07:04:04;12.50;;;3.53;;
6973;SDS011;3527;52.376;8.990;2023-03-26T07:06:31;5.70;;;3.40;;
6973;SDS011;3527;52.376;8.990;2023-03-26T07:08:58;8.80;;;3.50;;
6973;SDS011;3527;52.376;8.990;2023-03-26T07:11:24;10.47;;;4.03;;
6973;SDS011;3527;52.376;8.990;2023-03-26T07:13:52;11.47;;;3.63;;
6973;SDS011;3527;52.376;8.990;2023-03-26T07:16:21;9.83;;;3.33;;
6973;SDS011;3527;52.376;8.990;2023-03-26T07:18:48;9.90;;;3.20;;
6973;SDS011;3527;52.376;8.990;2023-03-26T07:21:14;7.23;;;2.90;;
6973;SDS011;3527;52.376;8.990;2023-03-26T07:23:41;13.40;;;4.47;;
6973;SDS011;3527;52.376;8.990;2023-03-26T07:26:14;12.30;;;3.33;;
6973;SDS011;3527;52.376;8.990;2023-03-26T07:28:46;11.57;;;3.13;;
6973;SDS011;3527;52.376;8.990;2023-03-26T07:41:44;7.93;;;2.90;;
6973;SDS011;3527;52.376;8.990;2023-03-26T07:46:38;8.53;;;3.40;;
6973;SDS011;3527;52.376;8.990;2023-03-26T07:49:08;8.00;;;2.60;;
6973;SDS011;3527;52.376;8.990;2023-03-26T07:51:37;6.40;;;2.67;;
6973;SDS011;3527;52.376;8.990;2023-03-26T07:54:04;7.03;;;2.97;;
6973;SDS011;3527;52.376;8.990;2023-03-26T07:56:33;7.47;;;2.97;;
6973;SDS011;3527;52.376;8.990;2023-03-26T08:06:53;7.80;;;2.93;;
6973;SDS011;3527;52.376;8.990;2023-03-26T08:15:07;6.10;;;2.63;;
6973;SDS011;3527;52.376;8.990;2023-03-26T08:17:41;6.77;;;3.00;;
6973;SDS011;3527;52.376;8.990;2023-03-26T08:22:38;7.73;;;2.77;;
6973;SDS011;3527;52.376;8.990;2023-03-26T08:25:17;8.00;;;2.90;;
6973;SDS011;3527;52.376;8.990;2023-03-26T08:27:50;9.93;;;3.70;;
6973;SDS011;3527;52.376;8.990;2023-03-26T08:30:21;6.57;;;3.10;;
6973;SDS011;3527;52.376;8.990;2023-03-26T08:32:58;9.67;;;3.57;;
6973;SDS011;3527;52.376;8.990;2023-03-26T08:35:25;8.23;;;3.40;;
6973;SDS011;3527;52.376;8.990;2023-03-26T08:37:52;7.73;;;3.60;;
6973;SDS011;3527;52.376;8.990;2023-03-26T08:43:14;10.07;;;3.67;;
6973;SDS011;3527;52.376;8.990;2023-03-26T08:46:09;9.37;;;3.27;;
6973;SDS011;3527;52.376;8.990;2023-03-26T08:59:38;9.10;;;3.50;;
6973;SDS011;3527;52.376;8.990;2023-03-26T09:25:55;6.70;;;2.27;;
6973;SDS011;3527;52.376;8.990;2023-03-26T09:28:40;5.27;;;2.47;;
6973;SDS011;3527;52.376;8.990;2023-03-26T09:33:55;7.20;;;2.10;;
6973;SDS011;3527;52.376;8.990;2023-03-26T09:51:46;7.57;;;2.10;;
6973;SDS011;3527;52.376;8.990;2023-03-26T09:58:20;7.00;;;2.00;;
6973;SDS011;3527;52.376;8.990;2023-03-26T10:03:27;4.73;;;2.10;;
6973;SDS011;3527;52.376;8.990;2023-03-26T10:06:07;4.63;;;1.73;;
6973;SDS011;3527;52.376;8.990;2023-03-26T10:14:01;6.10;;;2.07;;
6973;SDS011;3527;52.376;8.990;2023-03-26T10:24:46;5.03;;;2.30;;
6973;SDS011;3527;52.376;8.990;2023-03-26T10:35:38;4.60;;;2.27;;
6973;SDS011;3527;52.376;8.990;2023-03-26T10:53:42;4.80;;;2.10;;
6973;SDS011;3527;52.376;8.990;2023-03-26T10:58:48;6.87;;;2.53;;
6973;SDS011;3527;52.376;8.990;2023-03-26T11:04:09;5.10;;;2.60;;
6973;SDS011;3527;52.376;8.990;2023-03-26T11:06:44;5.27;;;2.60;;
6973;SDS011;3527;52.376;8.990;2023-03-26T11:14:56;5.97;;;2.50;;
6973;SDS011;3527;52.376;8.990;2023-03-26T11:20:12;6.80;;;3.30;;
6973;SDS011;3527;52.376;8.990;2023-03-26T11:30:32;6.63;;;3.80;;
6973;SDS011;3527;52.376;8.990;2023-03-26T11:33:04;5.53;;;2.63;;
6973;SDS011;3527;52.376;8.990;2023-03-26T11:35:35;7.37;;;3.00;;
6973;SDS011;3527;52.376;8.990;2023-03-26T11:38:12;6.33;;;2.80;;
6973;SDS011;3527;52.376;8.990;2023-03-26T11:40:42;6.77;;;2.50;;
6973;SDS011;3527;52.376;8.990;2023-03-26T11:43:11;7.13;;;2.87;;
6973;SDS011;3527;52.376;8.990;2023-03-26T11:45:40;5.57;;;2.47;;
6973;SDS011;3527;52.376;8.990;2023-03-26T11:48:24;6.67;;;2.73;;
6973;SDS011;3527;52.376;8.990;2023-03-26T11:50:55;8.10;;;3.00;;
6973;SDS011;3527;52.376;8.990;2023-03-26T11:53:24;10.90;;;2.97;;
6973;SDS011;3527;52.376;8.990;2023-03-26T11:55:57;10.70;;;3.20;;
6973;SDS011;3527;52.376;8.990;2023-03-26T11:58:28;9.10;;;3.17;;
6973;SDS011;3527;52.376;8.990;2023-03-26T12:00:56;9.53;;;3.47;;
6973;SDS011;3527;52.376;8.990;2023-03-26T12:03:24;7.83;;;3.30;;
6973;SDS011;3527;52.376;8.990;2023-03-26T12:05:53;7.07;;;3.33;;
6973;SDS011;3527;52.376;8.990;2023-03-26T12:08:29;9.53;;;3.73;;
6973;SDS011;3527;52.376;8.990;2023-03-26T12:11:01;8.43;;;3.90;;
6973;SDS011;3527;52.376;8.990;2023-03-26T12:13:33;11.53;;;3.90;;
6973;SDS011;3527;52.376;8.990;2023-03-26T12:16:12;10.20;;;4.20;;
6973;SDS011;3527;52.376;8.990;2023-03-26T12:18:40;9.30;;;3.87;;
6973;SDS011;3527;52.376;8.990;2023-03-26T12:21:11;10.93;;;4.77;;
6973;SDS011;3527;52.376;8.990;2023-03-26T12:26:15;10.83;;;4.10;;
6973;SDS011;3527;52.376;8.990;2023-03-26T12:28:43;11.17;;;4.17;;
6973;SDS011;3527;52.376;8.990;2023-03-26T12:31:10;12.03;;;4.00;;
6973;SDS011;3527;52.376;8.990;2023-03-26T12:33:44;8.00;;;3.60;;
6973;SDS011;3527;52.376;8.990;2023-03-26T12:36:15;10.50;;;4.17;;
6973;SDS011;3527;52.376;8.990;2023-03-26T12:38:42;10.17;;;4.07;;
6973;SDS011;3527;52.376;8.990;2023-03-26T12:41:35;7.30;;;4.17;;
6973;SDS011;3527;52.376;8.990;2023-03-26T12:44:27;8.40;;;4.37;;
6973;SDS011;3527;52.376;8.990;2023-03-26T12:50:00;12.83;;;4.50;;
6973;SDS011;3527;52.376;8.990;2023-03-26T12:52:35;11.00;;;4.20;;
6973;SDS011;3527;52.376;8.990;2023-03-26T12:55:12;11.17;;;4.13;;
6973;SDS011;3527;52.376;8.990;2023-03-26T12:58:24;12.13;;;4.63;;
6973;SDS011;3527;52.376;8.990;2023-03-26T13:06:14;10.27;;;4.63;;
6973;SDS011;3527;52.376;8.990;2023-03-26T13:08:55;13.23;;;5.43;;
6973;SDS011;3527;52.376;8.990;2023-03-26T13:12:28;15.47;;;6.40;;
6973;SDS011;3527;52.376;8.990;2023-03-26T13:14:26;14.53;;;6.40;;
6973;SDS011;3527;52.376;8.990;2023-03-26T13:17:07;13.47;;;6.67;;
6973;SDS011;3527;52.376;8.990;2023-03-26T13:19:40;10.57;;;5.70;;
6973;SDS011;3527;52.376;8.990;2023-03-26T13:24:44;14.40;;;5.60;;
6973;SDS011;3527;52.376;8.990;2023-03-26T13:29:55;10.23;;;5.30;;
6973;SDS011;3527;52.376;8.990;2023-03-26T13:32:33;12.47;;;4.93;;
6973;SDS011;3527;52.376;8.990;2023-03-26T13:37:40;9.60;;;4.90;;
6973;SDS011;3527;52.376;8.990;2023-03-26T13:45:56;11.53;;;4.73;;
6973;SDS011;3527;52.376;8.990;2023-03-26T13:47:56;10.30;;;4.33;;
6973;SDS011;3527;52.376;8.990;2023-03-26T13:50:24;13.97;;;4.27;;
6973;SDS011;3527;52.376;8.990;2023-03-26T13:52:53;13.93;;;4.20;;
6973;SDS011;3527;52.376;8.990;2023-03-26T13:55:26;11.90;;;4.33;;
6973;SDS011;3527;52.376;8.990;2023-03-26T13:58:02;14.10;;;4.40;;
6973;SDS011;3527;52.376;8.990;2023-03-26T14:03:28;12.90;;;4.20;;
6973;SDS011;3527;52.376;8.990;2023-03-26T14:05:58;11.73;;;4.03;;
6973;SDS011;3527;52.376;8.990;2023-03-26T14:13:45;8.37;;;3.60;;
6973;SDS011;3527;52.376;8.990;2023-03-26T14:16:14;10.97;;;4.10;;
6973;SDS011;3527;52.376;8.990;2023-03-26T14:18:51;10.30;;;3.93;;
6973;SDS011;3527;52.376;8.990;2023-03-26T14:24:22;10.93;;;3.93;;
6973;SDS011;3527;52.376;8.990;2023-03-26T14:26:56;13.40;;;3.90;;
6973;SDS011;3527;52.376;8.990;2023-03-26T14:42:51;8.63;;;3.53;;
6973;SDS011;3527;52.376;8.990;2023-03-26T14:45:25;7.60;;;3.03;;
6973;SDS011;3527;52.376;8.990;2023-03-26T15:07:13;8.90;;;3.10;;
6973;SDS011;3527;52.376;8.990;2023-03-26T15:33:37;14.70;;;4.43;;
6973;SDS011;3527;52.376;8.990;2023-03-26T15:41:37;13.47;;;4.27;;
6973;SDS011;3527;52.376;8.990;2023-03-26T15:46:53;10.67;;;3.67;;
6973;SDS011;3527;52.376;8.990;2023-03-26T15:49:29;15.73;;;3.80;;
6973;SDS011;3527;52.376;8.990;2023-03-26T15:57:33;11.30;;;3.60;;
6973;SDS011;3527;52.376;8.990;2023-03-26T16:05:32;12.00;;;3.40;;
6973;SDS011;3527;52.376;8.990;2023-03-26T16:15:45;9.80;;;3.30;;
6973;SDS011;3527;52.376;8.990;2023-03-26T16:18:17;13.20;;;3.03;;
6973;SDS011;3527;52.376;8.990;2023-03-26T16:20:48;10.53;;;3.00;;
6973;SDS011;3527;52.376;8.990;2023-03-26T16:23:26;11.90;;;2.90;;
6973;SDS011;3527;52.376;8.990;2023-03-26T16:25:57;9.40;;;2.93;;
6973;SDS011;3527;52.376;8.990;2023-03-26T16:28:31;15.03;;;3.03;;
6973;SDS011;3527;52.376;8.990;2023-03-26T16:31:16;8.00;;;2.50;;
6973;SDS011;3527;52.376;8.990;2023-03-26T16:36:37;13.57;;;3.00;;
6973;SDS011;3527;52.376;8.990;2023-03-26T16:44:36;8.60;;;2.37;;
6973;SDS011;3527;52.376;8.990;2023-03-26T16:47:10;9.67;;;3.27;;
6973;SDS011;3527;52.376;8.990;2023-03-26T16:49:44;10.27;;;2.10;;
6973;SDS011;3527;52.376;8.990;2023-03-26T16:52:34;10.13;;;2.60;;
6973;SDS011;3527;52.376;8.990;2023-03-26T16:55:14;9.43;;;2.33;;
6973;SDS011;3527;52.376;8.990;2023-03-26T16:57:49;9.83;;;2.63;;
6973;SDS011;3527;52.376;8.990;2023-03-26T17:00:24;15.67;;;2.77;;
6973;SDS011;3527;52.376;8.990;2023-03-26T17:03:10;10.97;;;3.27;;
6973;SDS011;3527;52.376;8.990;2023-03-26T17:11:18;12.83;;;3.00;;
6973;SDS011;3527;52.376;8.990;2023-03-26T17:27:35;10.87;;;2.80;;
6973;SDS011;3527;52.376;8.990;2023-03-26T17:35:16;11.03;;;2.50;;
6973;SDS011;3527;52.376;8.990;2023-03-26T17:37:43;13.47;;;3.03;;
6973;SDS011;3527;52.376;8.990;2023-03-26T17:40:30;11.60;;;2.80;;
6973;SDS011;3527;52.376;8.990;2023-03-26T17:43:09;10.87;;;2.40;;
6973;SDS011;3527;52.376;8.990;2023-03-26T17:45:40;13.97;;;2.83;;
6973;SDS011;3527;52.376;8.990;2023-03-26T17:48:08;9.57;;;3.00;;
6973;SDS011;3527;52.376;8.990;2023-03-26T17:50:39;14.00;;;3.40;;
6973;SDS011;3527;52.376;8.990;2023-03-26T17:53:16;9.77;;;2.73;;
6973;SDS011;3527;52.376;8.990;2023-03-26T17:55:44;11.87;;;2.83;;
6973;SDS011;3527;52.376;8.990;2023-03-26T18:01:16;11.70;;;2.67;;
6973;SDS011;3527;52.376;8.990;2023-03-26T18:03:39;15.07;;;3.63;;
6973;SDS011;3527;52.376;8.990;2023-03-26T18:06:12;13.07;;;3.00;;
6973;SDS011;3527;52.376;8.990;2023-03-26T18:08:40;13.30;;;3.10;;
6973;SDS011;3527;52.376;8.990;2023-03-26T18:11:18;12.17;;;2.50;;
6973;SDS011;3527;52.376;8.990;2023-03-26T18:13:49;13.03;;;2.80;;
6973;SDS011;3527;52.376;8.990;2023-03-26T18:16:32;11.50;;;2.97;;
6973;SDS011;3527;52.376;8.990;2023-03-26T18:19:03;12.67;;;3.03;;
6973;SDS011;3527;52.376;8.990;2023-03-26T18:21:40;13.20;;;3.27;;
6973;SDS011;3527;52.376;8.990;2023-03-26T18:26:57;9.40;;;2.50;;
6973;SDS011;3527;52.376;8.990;2023-03-26T18:29:30;9.30;;;2.50;;
6973;SDS011;3527;52.376;8.990;2023-03-26T18:32:00;12.77;;;3.30;;
6973;SDS011;3527;52.376;8.990;2023-03-26T18:34:29;14.77;;;3.10;;
6973;SDS011;3527;52.376;8.990;2023-03-26T18:39:33;8.40;;;2.47;;
6973;SDS011;3527;52.376;8.990;2023-03-26T18:42:00;16.93;;;3.47;;
6973;SDS011;3527;52.376;8.990;2023-03-26T18:44:27;14.80;;;2.97;;
6973;SDS011;3527;52.376;8.990;2023-03-26T18:46:54;17.17;;;2.87;;
6973;SDS011;3527;52.376;8.990;2023-03-26T18:49:21;8.60;;;2.13;;
6973;SDS011;3527;52.376;8.990;2023-03-26T18:51:49;11.60;;;2.70;;
6973;SDS011;3527;52.376;8.990;2023-03-26T18:54:22;17.00;;;3.37;;
6973;SDS011;3527;52.376;8.990;2023-03-26T18:56:50;13.03;;;2.83;;
6973;SDS011;3527;52.376;8.990;2023-03-26T19:01:54;8.67;;;2.47;;
6973;SDS011;3527;52.376;8.990;2023-03-26T19:04:23;8.47;;;2.37;;
6973;SDS011;3527;52.376;8.990;2023-03-26T19:06:51;9.30;;;2.33;;
6973;SDS011;3527;52.376;8.990;2023-03-26T19:09:21;12.53;;;2.70;;
6973;SDS011;3527;52.376;8.990;2023-03-26T19:11:58;9.67;;;2.40;;
6973;SDS011;3527;52.376;8.990;2023-03-26T19:14:29;11.53;;;2.70;;
6973;SDS011;3527;52.376;8.990;2023-03-26T19:17:01;10.93;;;2.30;;
6973;SDS011;3527;52.376;8.990;2023-03-26T19:19:30;9.93;;;2.60;;
6973;SDS011;3527;52.376;8.990;2023-03-26T19:21:57;9.83;;;2.13;;
6973;SDS011;3527;52.376;8.990;2023-03-26T19:24:25;12.93;;;3.43;;
6973;SDS011;3527;52.376;8.990;2023-03-26T19:26:52;12.20;;;3.30;;
6973;SDS011;3527;52.376;8.990;2023-03-26T19:29:22;10.10;;;2.47;;
6973;SDS011;3527;52.376;8.990;2023-03-26T19:31:50;10.67;;;2.27;;
6973;SDS011;3527;52.376;8.990;2023-03-26T19:34:26;10.63;;;2.50;;
6973;SDS011;3527;52.376;8.990;2023-03-26T19:37:01;7.67;;;1.80;;
6973;SDS011;3527;52.376;8.990;2023-03-26T19:39:34;11.23;;;2.83;;
6973;SDS011;3527;52.376;8.990;2023-03-26T19:42:03;11.80;;;2.67;;
6973;SDS011;3527;52.376;8.990;2023-03-26T19:44:30;6.87;;;1.87;;
6973;SDS011;3527;52.376;8.990;2023-03-26T19:47:01;11.47;;;2.67;;
6973;SDS011;3527;52.376;8.990;2023-03-26T19:49:30;9.40;;;2.53;;
6973;SDS011;3527;52.376;8.990;2023-03-26T19:52:04;11.50;;;2.63;;
6973;SDS011;3527;52.376;8.990;2023-03-26T19:57:29;9.20;;;2.40;;
6973;SDS011;3527;52.376;8.990;2023-03-26T19:59:57;10.13;;;2.57;;
6973;SDS011;3527;52.376;8.990;2023-03-26T20:02:24;10.80;;;1.73;;
6973;SDS011;3527;52.376;8.990;2023-03-26T20:04:51;6.50;;;1.97;;
6973;SDS011;3527;52.376;8.990;2023-03-26T20:07:19;8.53;;;2.10;;
6973;SDS011;3527;52.376;8.990;2023-03-26T20:10:01;11.37;;;2.23;;
6973;SDS011;3527;52.376;8.990;2023-03-26T20:12:28;8.20;;;2.07;;
6973;SDS011;3527;52.376;8.990;2023-03-26T20:14:55;14.33;;;2.33;;
6973;SDS011;3527;52.376;8.990;2023-03-26T20:17:22;7.90;;;2.00;;
6973;SDS011;3527;52.376;8.990;2023-03-26T20:19:48;7.47;;;2.27;;
6973;SDS011;3527;52.376;8.990;2023-03-26T20:22:16;9.70;;;2.43;;
6973;SDS011;3527;52.376;8.990;2023-03-26T20:24:43;12.77;;;2.03;;
6973;SDS011;3527;52.376;8.990;2023-03-26T20:27:12;8.23;;;2.30;;
6973;SDS011;3527;52.376;8.990;2023-03-26T20:29:41;9.57;;;2.10;;
6973;SDS011;3527;52.376;8.990;2023-03-26T20:32:18;10.07;;;2.50;;
6973;SDS011;3527;52.376;8.990;2023-03-26T20:34:50;11.23;;;2.27;;
6973;SDS011;3527;52.376;8.990;2023-03-26T20:37:16;10.37;;;2.30;;
6973;SDS011;3527;52.376;8.990;2023-03-26T20:39:43;11.93;;;2.27;;
6973;SDS011;3527;52.376;8.990;2023-03-26T20:42:10;5.37;;;1.77;;
6973;SDS011;3527;52.376;8.990;2023-03-26T20:44:41;9.20;;;2.67;;
6973;SDS011;3527;52.376;8.990;2023-03-26T20:47:11;5.33;;;1.70;;
6973;SDS011;3527;52.376;8.990;2023-03-26T20:49:38;9.37;;;2.30;;
6973;SDS011;3527;52.376;8.990;2023-03-26T20:52:05;8.03;;;2.40;;
6973;SDS011;3527;52.376;8.990;2023-03-26T20:54:32;10.93;;;2.33;;
6973;SDS011;3527;52.376;8.990;2023-03-26T20:56:58;9.57;;;2.03;;
6973;SDS011;3527;52.376;8.990;2023-03-26T20:59:26;9.03;;;2.10;;